createdAt,value
2022-10-17T00:01:58.795Z,18.45
2022-10-17T00:04:49.736Z,12.48
2022-10-17T00:07:41.121Z,14.60
2022-10-17T00:10:31.037Z,14.82
2022-10-17T00:13:21.474Z,16.50
2022-10-17T00:16:11.278Z,15.15
2022-10-17T00:19:03.196Z,15.75
2022-10-17T00:21:53.596Z,11.45
2022-10-17T00:24:45.577Z,10.35
2022-10-17T00:27:42.834Z,13.73
2022-10-17T00:30:34.330Z,11.52
2022-10-17T00:33:25.517Z,9.20
2022-10-17T00:36:18.154Z,11.18
2022-10-17T00:41:57.475Z,9.23
2022-10-17T00:44:48.634Z,11.45
2022-10-17T00:50:30.483Z,11.93
2022-10-17T00:53:21.737Z,10.48
2022-10-17T00:56:11.784Z,13.07
2022-10-17T00:59:02.001Z,11.52
2022-10-17T01:02:16.100Z,9.52
2022-10-17T01:05:08.580Z,10.40
2022-10-17T01:07:59.162Z,13.88
2022-10-17T01:11:08.610Z,10.68
2022-10-17T01:14:25.012Z,10.82
2022-10-17T01:17:41.851Z,12.27
2022-10-17T01:21:02.084Z,9.10
2022-10-17T01:24:11.787Z,10.85
2022-10-17T01:27:05.637Z,11.75
2022-10-17T01:30:31.573Z,11.27
2022-10-17T01:33:50.527Z,13.43
2022-10-17T01:36:41.127Z,8.02
2022-10-17T01:39:52.000Z,10.52
2022-10-17T01:43:15.573Z,9.80
2022-10-17T01:46:32.113Z,8.30
2022-10-17T01:49:26.880Z,9.73
2022-10-17T01:52:25.635Z,10.65
2022-10-17T01:55:24.937Z,10.57
2022-10-17T01:58:29.896Z,10.15
2022-10-17T02:01:21.475Z,9.05
2022-10-17T02:04:14.957Z,11.32
2022-10-17T02:07:13.670Z,13.27
2022-10-17T02:10:12.770Z,11.25
2022-10-17T02:13:43.539Z,9.80
2022-10-17T02:16:39.072Z,12.32
2022-10-17T02:19:38.659Z,8.73
2022-10-17T02:22:51.683Z,10.68
2022-10-17T02:26:04.156Z,11.18
2022-10-17T02:29:24.687Z,9.45
2022-10-17T02:32:27.271Z,9.27
2022-10-17T02:35:21.713Z,8.40
2022-10-17T02:38:17.135Z,7.05
2022-10-17T02:41:11.017Z,9.48
2022-10-17T02:44:02.831Z,9.57
2022-10-17T02:47:09.730Z,8.45
2022-10-17T02:50:00.936Z,8.65
2022-10-17T02:52:58.432Z,7.95
2022-10-17T02:56:00.355Z,7.88
2022-10-17T02:58:57.056Z,6.73
2022-10-17T03:01:46.971Z,8.60
2022-10-17T03:04:37.374Z,8.70
2022-10-17T03:07:28.465Z,8.82
2022-10-17T03:10:20.214Z,9.20
2022-10-17T03:13:12.358Z,6.88
2022-10-17T03:16:04.190Z,9.20
2022-10-17T03:18:55.699Z,10.67
2022-10-17T03:21:45.451Z,7.82
2022-10-17T03:24:35.693Z,8.27
2022-10-17T03:27:26.110Z,6.53
2022-10-17T03:30:17.458Z,7.53
2022-10-17T03:33:07.742Z,7.60
2022-10-17T03:35:58.849Z,10.65
2022-10-17T03:38:50.039Z,6.70
2022-10-17T03:41:40.420Z,8.90
2022-10-17T03:44:31.213Z,6.95
2022-10-17T03:47:22.709Z,7.00
2022-10-17T03:50:13.706Z,8.27
2022-10-17T03:53:05.410Z,7.05
2022-10-17T03:55:55.875Z,9.20
2022-10-17T03:58:46.567Z,6.05
2022-10-17T04:01:39.687Z,8.20
2022-10-17T04:04:30.597Z,7.55
2022-10-17T04:07:22.876Z,7.55
2022-10-17T04:10:15.517Z,7.75
2022-10-17T04:13:06.057Z,6.22
2022-10-17T04:16:01.941Z,8.35
2022-10-17T04:18:58.056Z,8.07
2022-10-17T04:21:50.097Z,7.35
2022-10-17T04:24:41.893Z,8.88
2022-10-17T04:27:36.150Z,7.32
2022-10-17T04:30:27.783Z,7.10
2022-10-17T04:33:18.857Z,6.63
2022-10-17T04:36:20.438Z,7.20
2022-10-17T04:39:11.237Z,8.13
2022-10-17T04:42:02.857Z,6.30
2022-10-17T04:44:54.904Z,8.00
2022-10-17T04:47:49.044Z,6.40
2022-10-17T04:50:39.257Z,5.97
2022-10-17T04:54:04.458Z,8.40
2022-10-17T04:56:56.290Z,7.55
2022-10-17T04:59:47.854Z,5.95
2022-10-17T05:02:46.390Z,6.57
2022-10-17T05:05:43.359Z,7.10
2022-10-17T05:08:34.717Z,5.85
2022-10-17T05:11:30.890Z,7.95
2022-10-17T05:14:22.692Z,7.07
2022-10-17T05:17:14.052Z,5.53
2022-10-17T05:20:04.508Z,5.70
2022-10-17T05:22:57.256Z,7.22
2022-10-17T05:25:56.777Z,6.13
2022-10-17T05:28:47.744Z,6.13
2022-10-17T05:31:38.661Z,5.37
2022-10-17T05:34:30.849Z,9.85
2022-10-17T05:37:21.813Z,6.63
2022-10-17T05:40:15.808Z,7.13
2022-10-17T05:43:05.923Z,6.70
2022-10-17T05:45:56.927Z,6.32
2022-10-17T05:48:48.332Z,7.28
2022-10-17T05:51:43.508Z,6.35
2022-10-17T05:54:38.850Z,5.18
2022-10-17T05:57:29.789Z,8.80
2022-10-17T06:00:21.990Z,7.13
2022-10-17T06:03:19.550Z,5.30
2022-10-17T06:06:12.930Z,5.38
2022-10-17T06:09:07.069Z,6.55
2022-10-17T06:12:00.411Z,6.20
2022-10-17T06:14:51.810Z,6.65
2022-10-17T06:17:42.216Z,5.72
2022-10-17T06:20:33.053Z,6.00
2022-10-17T06:23:24.980Z,8.23
2022-10-17T06:26:23.655Z,5.13
2022-10-17T06:29:14.887Z,6.80
2022-10-17T06:32:14.102Z,6.88
2022-10-17T06:35:09.194Z,6.68
2022-10-17T06:37:59.816Z,6.35
2022-10-17T06:40:51.030Z,5.35
2022-10-17T06:43:47.732Z,6.20
2022-10-17T06:47:00.721Z,6.85
2022-10-17T06:49:52.583Z,6.67
2022-10-17T06:52:56.610Z,8.60
2022-10-17T06:56:09.424Z,5.93
2022-10-17T06:59:17.849Z,6.43
2022-10-17T07:02:40.483Z,5.80
2022-10-17T07:05:30.058Z,6.95
2022-10-17T07:08:19.575Z,6.78
2022-10-17T07:11:18.000Z,5.80
2022-10-17T07:14:07.570Z,6.25
2022-10-17T07:16:57.562Z,6.55
2022-10-17T07:19:49.184Z,6.28
2022-10-17T07:22:38.801Z,8.35
2022-10-17T07:25:29.588Z,5.97
2022-10-17T07:28:22.456Z,8.43
2022-10-17T07:31:19.592Z,7.68
2022-10-17T07:34:09.004Z,6.38
2022-10-17T07:36:58.627Z,8.00
2022-10-17T07:39:48.063Z,6.68
2022-10-17T07:45:29.584Z,5.00
2022-10-17T07:48:20.189Z,5.78
2022-10-17T07:51:11.532Z,6.28
2022-10-17T07:54:00.817Z,7.90
2022-10-17T07:56:51.664Z,5.80
2022-10-17T07:59:41.002Z,5.20
2022-10-17T08:02:30.626Z,6.72
2022-10-17T08:05:20.509Z,5.90
2022-10-17T08:08:09.837Z,6.80
2022-10-17T08:11:07.739Z,7.00
2022-10-17T08:13:57.414Z,5.65
2022-10-17T08:16:47.731Z,6.78
2022-10-17T08:19:41.287Z,6.55
2022-10-17T08:22:30.982Z,5.95
2022-10-17T08:25:20.964Z,9.77
2022-10-17T08:28:10.804Z,6.63
2022-10-17T08:31:12.543Z,5.22
2022-10-17T08:34:01.957Z,5.22
2022-10-17T08:36:51.583Z,7.63
2022-10-17T08:39:42.942Z,7.95
2022-10-17T08:42:47.582Z,5.72
2022-10-17T08:45:52.784Z,6.65
2022-10-17T08:48:46.713Z,7.95
2022-10-17T08:51:43.979Z,5.47
2022-10-17T08:54:43.829Z,6.15
2022-10-17T08:57:33.361Z,6.38
2022-10-17T09:00:24.143Z,8.10
2022-10-17T09:03:30.921Z,6.20
2022-10-17T09:06:26.391Z,6.47
2022-10-17T09:09:28.324Z,6.85
2022-10-17T09:12:32.820Z,8.55
2022-10-17T09:15:33.911Z,5.95
2022-10-17T09:18:35.235Z,5.13
2022-10-17T09:21:46.533Z,7.60
2022-10-17T09:24:51.191Z,5.72
2022-10-17T09:27:44.746Z,6.05
2022-10-17T09:30:49.395Z,5.00
2022-10-17T09:33:53.742Z,5.30
2022-10-17T09:36:45.095Z,6.72
2022-10-17T09:39:34.714Z,6.28
2022-10-17T09:42:28.436Z,6.13
2022-10-17T09:45:27.995Z,6.32
2022-10-17T09:48:31.119Z,4.97
2022-10-17T09:51:25.998Z,9.27
2022-10-17T09:54:28.043Z,5.35
2022-10-17T09:57:19.207Z,5.38
2022-10-17T10:00:09.471Z,5.30
2022-10-17T10:03:31.267Z,5.93
2022-10-17T10:06:22.784Z,5.55
2022-10-17T10:09:28.996Z,6.30
2022-10-17T10:12:40.062Z,5.38
2022-10-17T10:15:42.236Z,6.88
2022-10-17T10:18:36.940Z,8.30
2022-10-17T10:21:28.611Z,5.00
2022-10-17T10:24:18.152Z,7.20
2022-10-17T10:27:12.299Z,5.78
2022-10-17T10:30:03.515Z,8.90
2022-10-17T10:32:53.344Z,5.32
2022-10-17T10:35:42.689Z,5.85
2022-10-17T10:38:34.535Z,5.35
2022-10-17T10:41:24.084Z,6.80
2022-10-17T10:44:18.418Z,6.22
2022-10-17T10:47:23.175Z,6.68
2022-10-17T10:50:31.595Z,5.80
2022-10-17T10:53:59.039Z,7.18
2022-10-17T10:56:53.561Z,5.53
2022-10-17T11:00:06.372Z,4.88
2022-10-17T11:03:19.377Z,4.82
2022-10-17T11:06:30.125Z,8.15
2022-10-17T11:09:37.727Z,4.90
2022-10-17T11:12:49.977Z,5.45
2022-10-17T11:16:00.905Z,5.05
2022-10-17T11:19:17.659Z,4.82
2022-10-17T11:22:12.965Z,7.63
2022-10-17T11:25:06.504Z,5.60
2022-10-17T11:27:57.254Z,5.10
2022-10-17T11:30:57.650Z,6.43
2022-10-17T11:34:08.450Z,5.40
2022-10-17T11:37:07.723Z,6.30
2022-10-17T11:40:04.553Z,6.53
2022-10-17T11:43:12.328Z,7.22
2022-10-17T11:46:07.640Z,6.53
2022-10-17T11:49:22.397Z,7.10
2022-10-17T11:52:51.329Z,5.30
2022-10-17T11:55:42.625Z,7.72
2022-10-17T11:58:51.854Z,7.30
2022-10-17T12:01:50.416Z,9.30
2022-10-17T12:05:03.328Z,9.07
2022-10-17T12:08:27.990Z,8.82
2022-10-17T12:11:26.093Z,10.35
2022-10-17T12:14:41.482Z,11.25
2022-10-17T12:17:41.760Z,13.98
2022-10-17T12:20:39.019Z,11.52
2022-10-17T12:23:33.260Z,10.35
2022-10-17T12:26:32.215Z,10.85
2022-10-17T12:29:34.304Z,9.43
2022-10-17T12:32:30.297Z,9.75
2022-10-17T12:35:28.123Z,8.20
2022-10-17T12:38:20.140Z,6.90
2022-10-17T12:41:09.587Z,8.65
2022-10-17T12:43:59.063Z,9.52
2022-10-17T12:46:52.913Z,9.77
2022-10-17T12:49:49.685Z,7.68
2022-10-17T12:52:56.181Z,6.28
2022-10-17T12:55:45.437Z,6.03
2022-10-17T12:58:37.391Z,6.85
2022-10-17T13:01:33.075Z,8.43
2022-10-17T13:04:23.731Z,6.40
2022-10-17T13:07:23.673Z,7.75
2022-10-17T13:10:29.052Z,5.57
2022-10-17T13:13:50.610Z,6.30
2022-10-17T13:16:43.392Z,7.97
2022-10-17T13:19:44.196Z,5.93
2022-10-17T13:22:34.164Z,6.07
2022-10-17T13:25:24.177Z,6.25
2022-10-17T13:28:14.723Z,7.20
2022-10-17T13:31:04.054Z,6.43
2022-10-17T13:33:59.236Z,7.20
2022-10-17T13:36:50.421Z,8.77
2022-10-17T13:39:55.147Z,6.90
2022-10-17T13:42:46.871Z,7.03
2022-10-17T13:45:40.356Z,5.45
2022-10-17T13:48:31.668Z,4.60
2022-10-17T13:51:21.381Z,6.65
2022-10-17T13:54:21.054Z,7.00
2022-10-17T13:57:36.671Z,9.48
2022-10-17T14:00:26.436Z,7.97
2022-10-17T14:03:15.769Z,6.38
2022-10-17T14:06:12.917Z,7.18
2022-10-17T14:09:19.216Z,8.85
2022-10-17T14:12:13.815Z,7.30
2022-10-17T14:15:12.417Z,7.80
2022-10-17T14:18:08.369Z,8.02
2022-10-17T14:21:34.033Z,7.60
2022-10-17T14:24:24.924Z,6.20
2022-10-17T14:27:28.899Z,6.32
2022-10-17T14:30:51.617Z,7.32
2022-10-17T14:33:39.948Z,5.97
2022-10-17T14:36:38.818Z,7.72
2022-10-17T14:39:29.347Z,8.02
2022-10-17T14:42:23.496Z,5.60
2022-10-17T14:45:27.910Z,6.43
2022-10-17T14:48:20.920Z,10.23
2022-10-17T14:51:19.249Z,6.68
2022-10-17T14:54:33.776Z,8.00
2022-10-17T14:57:42.417Z,11.90
2022-10-17T15:00:31.704Z,8.95
2022-10-17T15:03:21.191Z,11.68
2022-10-17T15:06:24.801Z,8.85
2022-10-17T15:09:14.536Z,12.18
2022-10-17T15:12:05.482Z,6.47
2022-10-17T15:14:55.354Z,6.53
2022-10-17T15:21:04.505Z,7.03
2022-10-17T15:23:56.135Z,8.60
2022-10-17T15:26:45.528Z,11.43
2022-10-17T15:29:34.769Z,11.10
2022-10-17T15:32:24.063Z,9.30
2022-10-17T15:35:13.343Z,9.80
2022-10-17T15:38:02.679Z,7.88
2022-10-17T15:40:53.010Z,12.00
2022-10-17T15:43:42.222Z,10.07
2022-10-17T15:46:34.298Z,9.23
2022-10-17T15:49:23.654Z,10.68
2022-10-17T15:52:12.983Z,11.23
2022-10-17T15:55:05.247Z,8.93
2022-10-17T15:57:55.034Z,11.48
2022-10-17T16:00:44.998Z,11.93
2022-10-17T16:03:35.258Z,10.98
2022-10-17T16:06:25.743Z,10.27
2022-10-17T16:09:15.074Z,13.43
2022-10-17T16:12:06.719Z,11.20
2022-10-17T16:14:56.094Z,12.23
2022-10-17T16:17:45.773Z,13.18
2022-10-17T16:20:35.101Z,10.07
2022-10-17T16:23:24.377Z,12.50
2022-10-17T16:26:17.143Z,11.77
2022-10-17T16:29:06.526Z,14.57
2022-10-17T16:31:56.171Z,9.52
2022-10-17T16:34:45.796Z,10.30
2022-10-17T16:37:36.749Z,10.25
2022-10-17T16:40:26.422Z,11.48
2022-10-17T16:43:15.770Z,9.27
2022-10-17T16:46:08.199Z,10.38
2022-10-17T16:48:58.808Z,15.27
2022-10-17T16:51:48.058Z,8.13
2022-10-17T16:54:37.263Z,9.45
2022-10-17T16:57:27.070Z,8.20
2022-10-17T17:00:16.969Z,7.80
2022-10-17T17:03:06.306Z,8.85
2022-10-17T17:05:55.872Z,5.85
2022-10-17T17:08:45.256Z,9.85
2022-10-17T17:11:34.474Z,9.35
2022-10-17T17:14:23.959Z,8.10
2022-10-17T17:17:19.685Z,7.03
2022-10-17T17:20:20.030Z,7.85
2022-10-17T17:23:15.106Z,9.07
2022-10-17T17:26:14.894Z,8.10
2022-10-17T17:29:04.415Z,8.60
2022-10-17T17:31:53.854Z,7.82
2022-10-17T17:34:44.762Z,7.45
2022-10-17T17:37:34.209Z,6.63
2022-10-17T17:40:23.513Z,7.90
2022-10-17T17:43:13.039Z,8.32
2022-10-17T17:46:08.316Z,9.07
2022-10-17T17:48:58.213Z,6.78
2022-10-17T17:51:49.910Z,7.88
2022-10-17T17:54:40.956Z,9.98
2022-10-17T17:57:31.276Z,9.68
2022-10-17T18:00:20.578Z,7.53
2022-10-17T18:03:09.891Z,5.88
2022-10-17T18:05:59.216Z,7.85
2022-10-17T18:08:54.420Z,10.20
2022-10-17T18:11:43.704Z,8.90
2022-10-17T18:14:32.904Z,8.40
2022-10-17T18:17:22.363Z,8.68
2022-10-17T18:20:12.144Z,8.05
2022-10-17T18:23:04.079Z,7.53
2022-10-17T18:25:58.460Z,8.23
2022-10-17T18:28:48.035Z,7.50
2022-10-17T18:31:37.630Z,8.93
2022-10-17T18:34:28.306Z,8.45
2022-10-17T18:37:17.618Z,10.10
2022-10-17T18:40:07.708Z,9.93
2022-10-17T18:42:56.933Z,8.23
2022-10-17T18:45:46.263Z,9.02
2022-10-17T18:48:36.240Z,7.93
2022-10-17T18:51:27.135Z,8.05
2022-10-17T18:54:21.381Z,10.60
2022-10-17T18:57:11.082Z,9.23
2022-10-17T19:00:00.362Z,8.55
2022-10-17T19:02:49.623Z,8.63
2022-10-17T19:05:46.034Z,5.75
2022-10-17T19:08:36.614Z,9.05
2022-10-17T19:11:28.343Z,6.72
2022-10-17T19:14:18.191Z,7.45
2022-10-17T19:17:07.460Z,8.57
2022-10-17T19:19:56.949Z,10.65
2022-10-17T19:22:46.203Z,8.25
2022-10-17T19:25:35.743Z,10.88
2022-10-17T19:28:25.525Z,9.57
2022-10-17T19:31:17.011Z,9.18
2022-10-17T19:34:07.411Z,8.75
2022-10-17T19:36:56.924Z,9.25
2022-10-17T19:39:46.599Z,11.15
2022-10-17T19:42:36.196Z,9.25
2022-10-17T19:45:25.491Z,10.48
2022-10-17T19:48:14.752Z,10.48
2022-10-17T19:51:05.359Z,7.78
2022-10-17T19:53:56.516Z,8.45
2022-10-17T19:56:45.863Z,9.38
2022-10-17T19:59:35.201Z,10.02
2022-10-17T20:02:24.768Z,8.02
2022-10-17T20:05:18.659Z,10.80
2022-10-17T20:08:08.366Z,10.75
2022-10-17T20:10:57.759Z,8.38
2022-10-17T20:13:47.458Z,9.23
2022-10-17T20:16:38.774Z,6.53
2022-10-17T20:19:28.089Z,8.35
2022-10-17T20:22:17.395Z,8.85
2022-10-17T20:25:07.139Z,9.00
2022-10-17T20:27:56.623Z,7.95
2022-10-17T20:30:47.471Z,9.50
2022-10-17T20:33:37.065Z,8.43
2022-10-17T20:36:27.015Z,7.13
2022-10-17T20:39:18.795Z,9.13
2022-10-17T20:42:08.106Z,12.95
2022-10-17T20:44:57.466Z,9.50
2022-10-17T20:47:52.493Z,9.63
2022-10-17T20:50:45.376Z,7.97
2022-10-17T20:53:37.370Z,7.18
2022-10-17T20:56:29.179Z,9.27
2022-10-17T20:59:19.274Z,7.60
2022-10-17T21:02:08.826Z,8.02
2022-10-17T21:04:59.098Z,9.88
2022-10-17T21:07:50.901Z,9.00
2022-10-17T21:10:40.156Z,12.55
2022-10-17T21:13:29.398Z,8.05
2022-10-17T21:16:20.287Z,10.07
2022-10-17T21:19:11.174Z,8.18
2022-10-17T21:22:00.580Z,7.45
2022-10-17T21:24:50.005Z,8.63
2022-10-17T21:27:39.227Z,8.18
2022-10-17T21:30:28.469Z,8.38
2022-10-17T21:33:17.718Z,9.23
2022-10-17T21:36:07.850Z,8.32
2022-10-17T21:38:58.389Z,8.38
2022-10-17T21:41:47.718Z,8.13
2022-10-17T21:44:37.310Z,8.85
2022-10-17T21:47:27.753Z,11.05
2022-10-17T21:50:17.094Z,9.93
2022-10-17T21:53:06.516Z,9.88
2022-10-17T21:55:55.866Z,9.18
2022-10-17T21:58:45.945Z,9.60
2022-10-17T22:01:40.473Z,15.93
2022-10-17T22:04:30.036Z,9.40
2022-10-17T22:07:19.222Z,18.08
2022-10-17T22:10:08.701Z,10.20
2022-10-17T22:12:57.957Z,10.60
2022-10-17T22:15:47.187Z,15.98
2022-10-17T22:18:36.789Z,11.20
2022-10-17T22:21:26.601Z,12.90
2022-10-17T22:24:17.543Z,13.88
2022-10-17T22:27:07.362Z,11.38
2022-10-17T22:29:56.777Z,15.07
2022-10-17T22:32:46.730Z,13.38
2022-10-17T22:35:36.039Z,11.57
2022-10-17T22:38:25.498Z,12.50
2022-10-17T22:41:14.817Z,13.80
2022-10-17T22:44:04.534Z,16.77
2022-10-17T22:46:53.950Z,13.15
2022-10-17T22:49:43.602Z,10.18
2022-10-17T22:52:32.996Z,14.55
2022-10-17T22:55:22.666Z,10.48
2022-10-17T22:58:11.900Z,15.43
2022-10-17T23:01:01.734Z,10.68
2022-10-17T23:03:51.856Z,11.93
2022-10-17T23:06:41.508Z,12.07
2022-10-17T23:09:31.072Z,11.15
2022-10-17T23:12:21.063Z,9.88
2022-10-17T23:15:10.999Z,9.15
2022-10-17T23:18:01.165Z,11.85
2022-10-17T23:20:50.555Z,8.93
2022-10-17T23:23:39.874Z,8.80
2022-10-17T23:26:29.309Z,10.40
2022-10-17T23:29:18.780Z,10.40
2022-10-17T23:32:07.981Z,7.18
2022-10-17T23:34:57.216Z,9.98
2022-10-17T23:37:46.503Z,9.45
2022-10-17T23:40:36.557Z,14.02
2022-10-17T23:43:27.534Z,9.82
2022-10-17T23:46:16.924Z,8.18
2022-10-17T23:49:07.140Z,11.70
2022-10-17T23:51:56.438Z,9.65
2022-10-17T23:54:45.702Z,10.07
2022-10-17T23:57:35.194Z,10.73
